To NAV CANADA Home Page Login to a new session Search on AWWS site Feedback and Comments Disclaimer Vers la page française équivalente Tips FAQ What's new on the site To the Forecasts and Observations / NOTAM section To "File a Flight Plan" website Publications and other links Update of the User's profile FIC Telephone Numbers My Weather Data Folder Route Weather Data Regional Weather Data Local Weather Data To the Forecasts and Observations / NOTAM section
Request Generated 03/01/2015 at 12:26:53 UTC . Weather information available at that time is displayed.

METAR/TAF

MAYO/YT    

METAR CYMA 011200Z 24011KT 20SM FEW045 M06/M08 A3013 RMK SC1 CLIMAT
-6.1/-8.7/0.2CM/ MWE TR SOG 32 SC TR SLP243=
SPECI CYMA 011121Z 22010KT 200V270 20SM FEW045 M06/M08 A3012 RMK SC1
WSHFT 1105 SC TR SLP242=
METAR CYMA 011100Z VRB05KT 20SM FEW045 M07/M08 A3012 RMK SC1 AURBO SC
TR SLP240=
SPECI CYMA 011021Z 24007KT 20SM FEW045 SCT100 M07/M09 A3010 RMK
SC2AS1 AURBO SLP233=
METAR CYMA 011000Z VRB05KT 20SM -SN FEW045 SCT100 M08/M10 A3008 RMK
SC2AS1 AURBO SLP229=

TAF CYMA 011138Z 0112/0124 24005KT P6SM SCT050
RMK NXT FCST BY 011800Z=
Your time UTC time
Weather data provided by Environment Canada and NAV CANADA